Terminal Aerodrome Forecast
Issued by NWS

Home | Current Version | Previous Version | Text Only | Print | Product List | Glossary On
Versions: 1 2 3 4 5 6 7 8 9 10 11 12 13 14 15
000
FTUS43 KDDC 210200 AAB
TAFHYS
TAF AMD
KHYS 210239Z 2103/2124 16013KT P6SM FEW110
     FM210330 14009KT P6SM BKN150
     FM211500 01015G22KT P6SM SCT250=

USA.gov is the U.S. government's official web portal to all federal, state and local government web resources and services.